Time;durP1;ratioP1;P1;durP2;ratioP2;P2;SDS_P1;SDS_P2;PMS_P1;PMS_P2;Temp;Humidity;BMP_temperature;BMP_pressure;BME280_temperature;BME280_humidity;BME280_pressure;Samples;Min_cycle;Max_cycle;Signal;HPM_P1;HPM_P2
2023/01/30 00:01:28;;;;;;;;;;;;;;;;;;4978677;28;19965;-23
2023/01/30 00:03:54;;;;;;;;;;;;;;;;;;4976951;28;20025;-29
2023/01/30 00:06:20;;;;;;;;;;;;;;;;;;4978810;28;19914;-23
2023/01/30 00:08:46;;;;;;;;;;;;;;;;;;4978788;28;19939;-27
2023/01/30 00:11:12;;;;;;;;;;;;;;;;;;4978466;28;19948;-25
2023/01/30 00:13:38;;;;;;;;;;;;;;;;;;4978701;28;19910;-27
2023/01/30 00:16:04;;;;;;;;;;;;;;;;;;4977438;28;20358;-28
2023/01/30 00:18:30;;;;;;;;;;;;;;;;;;4978647;28;19910;-26
2023/01/30 00:20:56;;;;;;;;;;;;;;;;;;4978354;28;20372;-28
2023/01/30 00:23:22;;;;;;;;;;;;;;;;;;4978234;28;19914;-29
2023/01/30 00:25:48;;;;;;;;;;;;;;;;;;4978311;28;19915;-24
2023/01/30 00:28:14;;;;;;;;;;;;;;;;;;4978241;28;20338;-27
2023/01/30 00:30:40;;;;;;;;;;;;;;;;;;4978361;28;19922;-29
2023/01/30 00:33:06;;;;;;;;;;;;;;;;;;4978093;28;19989;-29
2023/01/30 00:35:32;;;;;;;;;;;;;;;;;;4978340;28;19965;-28
2023/01/30 00:37:58;;;;;;;;;;;;;;;;;;4978271;28;19910;-24
2023/01/30 00:40:24;;;;;;;;;;;;;;;;;;4978233;28;19914;-23
2023/01/30 00:48:19;;;;;;;;;;;;;;;;;;4977978;28;19940;-30
2023/01/30 00:50:45;;;;;;;;;;;;;;;;;;4977704;28;20028;-25
2023/01/30 00:53:11;;;;;;;;;;;;;;;;;;4977952;28;19910;-26
2023/01/30 00:55:37;;;;;;;;;;;;;;;;;;4976736;28;20009;-28
2023/01/30 00:58:03;;;;;;;;;;;;;;;;;;4977956;28;19978;-25
2023/01/30 01:00:29;;;;;;;;;;;;;;;;;;4977919;28;19914;-25
2023/01/30 01:02:55;;;;;;;;;;;;;;;;;;4977636;28;19921;-28
2023/01/30 01:05:21;;;;;;;;;;;;;;;;;;4977373;28;19922;-26
2023/01/30 01:07:47;;;;;;;;;;;;;;;;;;4977432;28;19914;-26
2023/01/30 01:10:15;;;;;;;;;;;;;;;;;;4977318;28;20317;-25
2023/01/30 01:12:42;;;;;;;;;;;;;;;;;;4977265;28;19921;-27
2023/01/30 01:15:08;;;;;;;;;;;;;;;;;;4977129;28;19914;-25
2023/01/30 01:17:34;;;;;;;;;;;;;;;;;;4977531;28;20231;-31
2023/01/30 01:20:00;;;;;;;;;;;;;;;;;;4977473;28;20262;-24
2023/01/30 01:22:26;;;;;;;;;;;;;;;;;;4977172;28;19921;-28
2023/01/30 01:24:52;;;;;;;;;;;;;;;;;;4977145;28;20345;-25
2023/01/30 01:27:18;;;;;;;;;;;;;;;;;;4977310;28;19965;-32
2023/01/30 01:29:44;;;;;;;;;;;;;;;;;;4977221;28;20227;-24
2023/01/30 01:32:10;;;;;;;;;;;;;;;;;;4977198;28;19933;-25
2023/01/30 01:34:36;;;;;;;;;;;;;;;;;;4975944;28;20352;-30
2023/01/30 01:37:02;;;;;;;;;;;;;;;;;;4977213;28;19910;-23
2023/01/30 01:41:00;;;;;;;;;;;;;;;;;;4976892;28;19972;-24
2023/01/30 01:42:14;;;;;;;;;;;;;;;;;;4976769;28;20258;-28
2023/01/30 01:44:40;;;;;;;;;;;;;;;;;;4977030;28;19978;-26
2023/01/30 01:47:06;;;;;;;;;;;;;;;;;;4977048;28;19914;-27
2023/01/30 01:49:32;;;;;;;;;;;;;;;;;;4976544;28;19979;-24
2023/01/30 01:51:58;;;;;;;;;;;;;;;;;;4976884;28;20384;-27
2023/01/30 01:54:24;;;;;;;;;;;;;;;;;;4976617;28;19950;-23
2023/01/30 01:56:50;;;;;;;;;;;;;;;;;;4976581;28;19988;-24
2023/01/30 01:59:16;;;;;;;;;;;;;;;;;;4976945;28;20314;-25
2023/01/30 02:01:42;;;;;;;;;;;;;;;;;;4976513;28;19925;-25
2023/01/30 02:04:08;;;;;;;;;;;;;;;;;;4976144;28;20380;-25
2023/01/30 02:06:34;;;;;;;;;;;;;;;;;;4976411;28;20381;-27
2023/01/30 02:09:00;;;;;;;;;;;;;;;;;;4976353;28;20013;-27
2023/01/30 02:11:26;;;;;;;;;;;;;;;;;;4976364;28;19920;-29
2023/01/30 02:13:52;;;;;;;;;;;;;;;;;;4975236;28;19965;-29
2023/01/30 02:16:18;;;;;;;;;;;;;;;;;;4975377;28;19914;-28
2023/01/30 02:18:44;;;;;;;;;;;;;;;;;;4976342;28;19922;-27
2023/01/30 02:21:10;;;;;;;;;;;;;;;;;;4976212;28;19921;-26
2023/01/30 02:23:36;;;;;;;;;;;;;;;;;;4976188;28;19918;-25
2023/01/30 02:26:02;;;;;;;;;;;;;;;;;;4975797;28;20264;-27
2023/01/30 02:28:28;;;;;;;;;;;;;;;;;;4976099;28;19921;-27
2023/01/30 02:30:54;;;;;;;;;;;;;;;;;;4976277;28;19918;-28
2023/01/30 02:33:20;;;;;;;;;;;;;;;;;;4976077;28;19916;-33
2023/01/30 02:35:48;;;;;;;;;;;;;;;;;;4976109;28;19918;-24
2023/01/30 02:38:14;;;;;;;;;;;;;;;;;;4976005;28;19921;-28
2023/01/30 02:40:40;;;;;;;;;;;;;;;;;;4975066;28;19914;-27
2023/01/30 02:43:06;;;;;;;;;;;;;;;;;;4975996;28;20368;-30
2023/01/30 02:45:32;;;;;;;;;;;;;;;;;;4975984;28;19921;-28
2023/01/30 02:47:58;;;;;;;;;;;;;;;;;;4976247;28;19921;-27
2023/01/30 02:50:24;;;;;;;;;;;;;;;;;;4975869;28;20239;-27
2023/01/30 02:52:50;;;;;;;;;;;;;;;;;;4975806;28;19915;-30
2023/01/30 02:55:16;;;;;;;;;;;;;;;;;;4976524;28;19915;-27
2023/01/30 02:57:42;;;;;;;;;;;;;;;;;;4976092;28;20261;-30
2023/01/30 03:00:08;;;;;;;;;;;;;;;;;;4976097;28;19993;-25
2023/01/30 03:02:34;;;;;;;;;;;;;;;;;;4976010;28;20226;-26
2023/01/30 03:05:01;;;;;;;;;;;;;;;;;;4975726;28;19922;-27
2023/01/30 03:07:27;;;;;;;;;;;;;;;;;;4975743;28;19914;-26
2023/01/30 03:09:53;;;;;;;;;;;;;;;;;;4975686;28;20261;-24
2023/01/30 03:12:19;;;;;;;;;;;;;;;;;;4975835;28;19914;-25
2023/01/30 03:14:45;;;;;;;;;;;;;;;;;;4975919;28;20314;-27
2023/01/30 03:17:11;;;;;;;;;;;;;;;;;;4975985;28;19946;-26
2023/01/30 03:19:37;;;;;;;;;;;;;;;;;;4975647;28;20265;-30
2023/01/30 03:22:03;;;;;;;;;;;;;;;;;;4975559;28;19910;-23
2023/01/30 03:24:29;;;;;;;;;;;;;;;;;;4975621;28;19914;-26
2023/01/30 03:26:55;;;;;;;;;;;;;;;;;;4975605;28;19910;-30
2023/01/30 03:29:21;;;;;;;;;;;;;;;;;;4975489;28;20345;-23
2023/01/30 03:31:47;;;;;;;;;;;;;;;;;;4975530;28;19914;-26
2023/01/30 03:34:13;;;;;;;;;;;;;;;;;;4975784;28;19917;-27
2023/01/30 03:36:39;;;;;;;;;;;;;;;;;;4975496;28;19914;-27
2023/01/30 03:39:05;;;;;;;;;;;;;;;;;;4978010;28;19910;-32
2023/01/30 03:41:31;;;;;;;;;;;;;;;;;;4979371;28;19918;-30
2023/01/30 03:43:57;;;;;;;;;;;;;;;;;;4979004;28;20303;-29
2023/01/30 03:46:23;;;;;;;;;;;;;;;;;;4978997;28;19914;-27
2023/01/30 03:48:49;;;;;;;;;;;;;;;;;;4979596;28;19980;-29
2023/01/30 03:51:15;;;;;;;;;;;;;;;;;;4978921;28;20005;-26
2023/01/30 03:53:41;;;;;;;;;;;;;;;;;;4978701;28;19968;-27
2023/01/30 03:56:07;;;;;;;;;;;;;;;;;;4979060;28;19914;-23
2023/01/30 03:58:33;;;;;;;;;;;;;;;;;;4978848;28;19949;-32
2023/01/30 04:00:59;;;;;;;;;;;;;;;;;;4978651;28;20281;-29
2023/01/30 04:03:25;;;;;;;;;;;;;;;;;;4978426;28;19953;-27
2023/01/30 04:05:51;;;;;;;;;;;;;;;;;;4978884;28;19906;-29
2023/01/30 04:08:16;;;;;;;;;;;;;;;;;;4978509;28;20361;-24
2023/01/30 04:10:42;;;;;;;;;;;;;;;;;;4978773;28;19925;-27
2023/01/30 04:13:08;;;;;;;;;;;;;;;;;;4978478;28;19977;-28
2023/01/30 04:15:34;;;;;;;;;;;;;;;;;;4978777;28;19984;-26
2023/01/30 04:18:00;;;;;;;;;;;;;;;;;;4977446;28;20376;-26
2023/01/30 04:20:27;;;;;;;;;;;;;;;;;;4978659;28;19997;-25
2023/01/30 04:22:53;;;;;;;;;;;;;;;;;;4978469;28;19914;-27
2023/01/30 04:25:18;;;;;;;;;;;;;;;;;;4978246;28;19920;-30
2023/01/30 04:27:45;;;;;;;;;;;;;;;;;;4978448;28;19910;-31
2023/01/30 04:30:10;;;;;;;;;;;;;;;;;;4978082;28;19918;-27
2023/01/30 04:32:36;;;;;;;;;;;;;;;;;;4977134;28;19910;-27
2023/01/30 04:35:02;;;;;;;;;;;;;;;;;;4978070;28;19914;-24
2023/01/30 04:37:28;;;;;;;;;;;;;;;;;;4977942;28;19941;-24
2023/01/30 04:39:54;;;;;;;;;;;;;;;;;;4978112;28;19964;-27
2023/01/30 04:42:20;;;;;;;;;;;;;;;;;;4977768;28;20373;-30
2023/01/30 04:44:46;;;;;;;;;;;;;;;;;;4977804;28;19921;-28
2023/01/30 04:47:12;;;;;;;;;;;;;;;;;;4977774;28;19914;-28
2023/01/30 04:49:38;;;;;;;;;;;;;;;;;;4977218;28;20008;-29
2023/01/30 04:52:05;;;;;;;;;;;;;;;;;;4977826;28;19914;-27
2023/01/30 04:54:31;;;;;;;;;;;;;;;;;;4977838;28;19910;-29
2023/01/30 04:56:57;;;;;;;;;;;;;;;;;;4977474;28;20001;-25
2023/01/30 04:59:23;;;;;;;;;;;;;;;;;;4977466;28;19965;-25
2023/01/30 05:04:30;;;;;;;;;;;;;;;;;;4995153;28;20264;-25
2023/01/30 05:06:56;;;;;;;;;;;;;;;;;;4997014;28;19996;-24
2023/01/30 05:09:22;;;;;;;;;;;;;;;;;;4996591;28;20017;-24
2023/01/30 05:11:48;;;;;;;;;;;;;;;;;;4995387;28;19937;-25
2023/01/30 05:14:14;;;;;;;;;;;;;;;;;;4996537;28;19929;-24
2023/01/30 05:16:40;;;;;;;;;;;;;;;;;;4996667;28;19945;-25
2023/01/30 05:19:06;;;;;;;;;;;;;;;;;;4995133;28;20348;-24
2023/01/30 05:21:32;;;;;;;;;;;;;;;;;;4995996;28;19989;-24
2023/01/30 05:23:58;;;;;;;;;;;;;;;;;;4996259;28;20075;-24
2023/01/30 05:26:25;;;;;;;;;;;;;;;;;;4996059;28;19984;-24
2023/01/30 05:28:50;;;;;;;;;;;;;;;;;;4996045;28;19914;-24
2023/01/30 05:31:16;;;;;;;;;;;;;;;;;;4995917;28;19917;-24
2023/01/30 05:33:42;;;;;;;;;;;;;;;;;;4995897;28;20008;-24
2023/01/30 05:36:08;;;;;;;;;;;;;;;;;;4996187;28;20001;-32
2023/01/30 05:38:34;;;;;;;;;;;;;;;;;;4995850;28;20256;-23
2023/01/30 05:41:01;;;;;;;;;;;;;;;;;;4995518;28;19913;-24
2023/01/30 05:43:27;;;;;;;;;;;;;;;;;;4994279;28;19913;-24
2023/01/30 05:45:53;;;;;;;;;;;;;;;;;;4995527;28;19913;-24
2023/01/30 05:48:19;;;;;;;;;;;;;;;;;;4995968;28;19949;-24
2023/01/30 05:50:45;;;;;;;;;;;;;;;;;;4995651;28;19945;-24
2023/01/30 05:53:11;;;;;;;;;;;;;;;;;;4995635;28;19910;-24
2023/01/30 05:55:37;;;;;;;;;;;;;;;;;;4995343;28;20333;-24
2023/01/30 05:58:03;;;;;;;;;;;;;;;;;;4995552;28;19910;-24
2023/01/30 06:00:29;;;;;;;;;;;;;;;;;;4995497;28;19922;-24
2023/01/30 06:02:55;;;;;;;;;;;;;;;;;;4995142;28;19922;-24
2023/01/30 06:05:21;;;;;;;;;;;;;;;;;;4995704;28;19971;-24
2023/01/30 06:07:47;;;;;;;;;;;;;;;;;;4995471;28;20335;-25
2023/01/30 06:10:13;;;;;;;;;;;;;;;;;;4995309;28;19918;-24
2023/01/30 06:12:39;;;;;;;;;;;;;;;;;;4995162;28;19917;-24
2023/01/30 06:15:05;;;;;;;;;;;;;;;;;;4994920;28;19921;-24
2023/01/30 06:17:31;;;;;;;;;;;;;;;;;;4995138;28;20004;-25
2023/01/30 06:19:58;;;;;;;;;;;;;;;;;;4995082;28;19961;-25
2023/01/30 06:22:24;;;;;;;;;;;;;;;;;;4995236;28;19925;-24
2023/01/30 06:24:49;;;;;;;;;;;;;;;;;;4995313;28;19913;-24
2023/01/30 06:27:16;;;;;;;;;;;;;;;;;;4995429;28;19910;-24
2023/01/30 06:29:42;;;;;;;;;;;;;;;;;;4995112;28;20261;-24
2023/01/30 06:32:09;;;;;;;;;;;;;;;;;;4995048;28;20004;-24
2023/01/30 06:34:35;;;;;;;;;;;;;;;;;;4994674;28;19993;-24
2023/01/30 06:37:01;;;;;;;;;;;;;;;;;;4995004;28;20004;-24
2023/01/30 06:39:27;;;;;;;;;;;;;;;;;;4995266;28;20324;-23
2023/01/30 06:41:53;;;;;;;;;;;;;;;;;;4994915;28;19918;-24
2023/01/30 06:44:20;;;;;;;;;;;;;;;;;;4994840;28;20008;-24
2023/01/30 06:46:46;;;;;;;;;;;;;;;;;;4995084;28;19914;-24
2023/01/30 06:49:12;;;;;;;;;;;;;;;;;;4994933;28;19917;-24
2023/01/30 06:51:38;;;;;;;;;;;;;;;;;;4995171;28;19924;-24
2023/01/30 06:54:04;;;;;;;;;;;;;;;;;;4995175;28;19996;-31
2023/01/30 06:56:30;;;;;;;;;;;;;;;;;;4995096;28;20348;-24
2023/01/30 06:58:56;;;;;;;;;;;;;;;;;;4994904;28;19910;-23
2023/01/30 07:01:22;;;;;;;;;;;;;;;;;;4993535;28;20316;-24
2023/01/30 07:03:48;;;;;;;;;;;;;;;;;;4993403;28;19949;-24
2023/01/30 07:06:14;;;;;;;;;;;;;;;;;;4994671;28;19914;-24
2023/01/30 07:08:41;;;;;;;;;;;;;;;;;;4994765;28;19945;-24
2023/01/30 07:11:07;;;;;;;;;;;;;;;;;;4994534;28;19918;-24
2023/01/30 07:13:33;;;;;;;;;;;;;;;;;;4996436;28;20336;-24
2023/01/30 07:15:59;;;;;;;;;;;;;;;;;;4998034;28;19935;-24
2023/01/30 07:18:25;;;;;;;;;;;;;;;;;;4996551;28;19918;-24
2023/01/30 07:20:51;;;;;;;;;;;;;;;;;;4997761;28;19914;-24
2023/01/30 07:23:17;;;;;;;;;;;;;;;;;;4996445;28;19910;-24
2023/01/30 07:25:43;;;;;;;;;;;;;;;;;;4996702;28;20076;-24
2023/01/30 07:28:09;;;;;;;;;;;;;;;;;;4997518;28;19917;-25
2023/01/30 07:30:35;;;;;;;;;;;;;;;;;;4997538;28;19936;-25
2023/01/30 07:33:01;;;;;;;;;;;;;;;;;;4996357;28;19925;-24
2023/01/30 07:35:27;;;;;;;;;;;;;;;;;;4997324;28;19940;-24
2023/01/30 07:37:53;;;;;;;;;;;;;;;;;;4997774;28;19924;-24
2023/01/30 07:40:20;;;;;;;;;;;;;;;;;;4997768;28;19953;-24
2023/01/30 07:42:46;;;;;;;;;;;;;;;;;;4997702;28;19921;-24
2023/01/30 07:45:12;;;;;;;;;;;;;;;;;;4998289;28;19913;-24
2023/01/30 07:47:38;;;;;;;;;;;;;;;;;;4997550;28;19913;-22
2023/01/30 07:50:04;;;;;;;;;;;;;;;;;;4997429;28;20017;-25
2023/01/30 07:52:30;;;;;;;;;;;;;;;;;;4997648;28;19941;-25
2023/01/30 07:54:56;;;;;;;;;;;;;;;;;;4997540;28;19914;-25
2023/01/30 07:57:22;;;;;;;;;;;;;;;;;;4997722;28;20001;-32
2023/01/30 07:59:48;;;;;;;;;;;;;;;;;;4996792;28;19917;-25
2023/01/30 08:02:15;;;;;;;;;;;;;;;;;;4996243;28;20015;-25
2023/01/30 08:04:41;;;;;;;;;;;;;;;;;;4997719;28;19921;-25
2023/01/30 08:07:07;;;;;;;;;;;;;;;;;;4997338;28;20256;-25
2023/01/30 08:09:33;;;;;;;;;;;;;;;;;;4997336;28;20004;-25
2023/01/30 08:11:59;;;;;;;;;;;;;;;;;;4997142;28;20221;-25
2023/01/30 08:14:27;;;;;;;;;;;;;;;;;;4997515;28;19914;-25
2023/01/30 08:16:53;;;;;;;;;;;;;;;;;;4997396;28;20272;-25
2023/01/30 08:19:19;;;;;;;;;;;;;;;;;;4996059;28;19949;-25
2023/01/30 08:21:45;;;;;;;;;;;;;;;;;;4996711;28;19914;-25
2023/01/30 08:24:11;;;;;;;;;;;;;;;;;;4996335;28;19914;-25
2023/01/30 08:26:38;;;;;;;;;;;;;;;;;;4997181;28;19945;-25
2023/01/30 08:29:04;;;;;;;;;;;;;;;;;;4996790;28;19936;-25
2023/01/30 08:31:30;;;;;;;;;;;;;;;;;;4996568;28;19976;-25
2023/01/30 08:33:56;;;;;;;;;;;;;;;;;;4996762;28;19913;-25
2023/01/30 08:36:22;;;;;;;;;;;;;;;;;;4997079;28;19920;-25
2023/01/30 08:38:48;;;;;;;;;;;;;;;;;;4997144;28;19914;-25
2023/01/30 08:41:14;;;;;;;;;;;;;;;;;;4996078;28;20348;-25
2023/01/30 08:43:40;;;;;;;;;;;;;;;;;;4995861;28;19949;-25
2023/01/30 08:46:06;;;;;;;;;;;;;;;;;;4995935;28;19914;-25
2023/01/30 08:48:32;;;;;;;;;;;;;;;;;;4996936;28;20256;-25
2023/01/30 08:50:58;;;;;;;;;;;;;;;;;;4997230;28;19917;-25
2023/01/30 08:53:24;;;;;;;;;;;;;;;;;;4995627;28;20344;-24
2023/01/30 08:55:50;;;;;;;;;;;;;;;;;;4995567;28;19944;-25
2023/01/30 08:58:16;;;;;;;;;;;;;;;;;;4996312;28;19913;-25
2023/01/30 09:00:43;;;;;;;;;;;;;;;;;;4996494;28;20284;-25
2023/01/30 09:03:09;;;;;;;;;;;;;;;;;;4996074;28;19926;-25
2023/01/30 09:05:35;;;;;;;;;;;;;;;;;;4996465;28;19928;-25
2023/01/30 09:08:01;;;;;;;;;;;;;;;;;;4996376;28;19925;-25
2023/01/30 09:10:28;;;;;;;;;;;;;;;;;;4996163;28;19913;-25
2023/01/30 09:12:54;;;;;;;;;;;;;;;;;;4996119;28;19949;-24
2023/01/30 09:15:20;;;;;;;;;;;;;;;;;;4994899;28;19914;-25
2023/01/30 09:17:46;;;;;;;;;;;;;;;;;;4994784;28;19914;-25
2023/01/30 09:20:12;;;;;;;;;;;;;;;;;;4996220;28;19918;-25
2023/01/30 09:22:38;;;;;;;;;;;;;;;;;;4996036;28;20036;-25
2023/01/30 09:25:04;;;;;;;;;;;;;;;;;;4996383;28;20261;-25
2023/01/30 09:27:30;;;;;;;;;;;;;;;;;;4995862;28;19997;-24
2023/01/30 09:29:56;;;;;;;;;;;;;;;;;;4995906;28;20331;-26
2023/01/30 09:32:22;;;;;;;;;;;;;;;;;;4995598;28;19910;-25
2023/01/30 09:34:48;;;;;;;;;;;;;;;;;;4995762;28;20226;-25
2023/01/30 09:37:14;;;;;;;;;;;;;;;;;;4995375;28;19922;-25
2023/01/30 09:39:41;;;;;;;;;;;;;;;;;;4995967;28;20010;-25
2023/01/30 09:42:07;;;;;;;;;;;;;;;;;;4995449;28;19914;-25
2023/01/30 09:44:33;;;;;;;;;;;;;;;;;;4995334;28;19910;-25
2023/01/30 09:47:01;;;;;;;;;;;;;;;;;;4993903;28;19918;-25
2023/01/30 09:49:27;;;;;;;;;;;;;;;;;;4995116;28;19914;-25
2023/01/30 09:51:53;;;;;;;;;;;;;;;;;;4994725;28;20327;-25
2023/01/30 09:54:21;;;;;;;;;;;;;;;;;;4993615;28;19925;-25
2023/01/30 09:56:46;;;;;;;;;;;;;;;;;;4994676;28;19949;-25
2023/01/30 09:59:13;;;;;;;;;;;;;;;;;;4994896;28;20352;-25
2023/01/30 10:01:38;;;;;;;;;;;;;;;;;;4994615;28;19940;-24
2023/01/30 10:04:05;;;;;;;;;;;;;;;;;;4994348;28;19922;-24
2023/01/30 10:06:30;;;;;;;;;;;;;;;;;;4994696;28;19914;-23
2023/01/30 10:08:57;;;;;;;;;;;;;;;;;;4994624;28;20284;-23
2023/01/30 10:11:23;;;;;;;;;;;;;;;;;;4994261;28;19924;-23
2023/01/30 10:13:49;;;;;;;;;;;;;;;;;;4994239;28;19914;-23
2023/01/30 10:16:15;;;;;;;;;;;;;;;;;;4994483;28;19910;-23
2023/01/30 10:18:41;;;;;;;;;;;;;;;;;;4994239;28;19914;-23
2023/01/30 10:21:07;;;;;;;;;;;;;;;;;;4993096;28;19914;-24
2023/01/30 10:23:33;;;;;;;;;;;;;;;;;;4994154;28;19910;-23
2023/01/30 10:25:59;;;;;;;;;;;;;;;;;;4994534;28;19914;-30
2023/01/30 10:28:25;;;;;;;;;;;;;;;;;;4994794;28;19921;-23
2023/01/30 10:30:51;;;;;;;;;;;;;;;;;;4995155;28;19918;-30
2023/01/30 10:33:17;;;;;;;;;;;;;;;;;;4994729;28;19917;-23
2023/01/30 10:35:43;;;;;;;;;;;;;;;;;;4994578;28;19918;-23
2023/01/30 10:38:09;;;;;;;;;;;;;;;;;;4995318;28;20036;-23
2023/01/30 10:40:35;;;;;;;;;;;;;;;;;;4995124;28;19918;-23
2023/01/30 10:43:01;;;;;;;;;;;;;;;;;;4994961;28;19913;-24
2023/01/30 10:45:27;;;;;;;;;;;;;;;;;;4994974;28;19914;-24
2023/01/30 10:47:53;;;;;;;;;;;;;;;;;;4994159;28;19914;-23
2023/01/30 10:50:19;;;;;;;;;;;;;;;;;;4995431;28;19914;-23
2023/01/30 10:52:45;;;;;;;;;;;;;;;;;;4994715;28;19914;-23
2023/01/30 10:55:11;;;;;;;;;;;;;;;;;;4994870;28;20225;-24
2023/01/30 10:57:37;;;;;;;;;;;;;;;;;;4995040;28;19910;-24
2023/01/30 11:00:04;;;;;;;;;;;;;;;;;;4994683;28;20372;-23
2023/01/30 11:02:30;;;;;;;;;;;;;;;;;;4994289;28;19929;-23
2023/01/30 11:04:57;;;;;;;;;;;;;;;;;;4994779;28;19914;-23
2023/01/30 11:07:23;;;;;;;;;;;;;;;;;;4995025;28;19937;-24
2023/01/30 11:09:49;;;;;;;;;;;;;;;;;;4994643;28;20483;-24
2023/01/30 11:12:15;;;;;;;;;;;;;;;;;;4994624;28;19932;-24
2023/01/30 11:14:41;;;;;;;;;;;;;;;;;;4994947;28;20300;-24
2023/01/30 11:17:07;;;;;;;;;;;;;;;;;;4993459;28;20017;-24
2023/01/30 11:19:33;;;;;;;;;;;;;;;;;;4994455;28;20357;-24
2023/01/30 11:21:59;;;;;;;;;;;;;;;;;;4993648;28;20004;-24
2023/01/30 11:24:25;;;;;;;;;;;;;;;;;;4995107;28;19949;-24
2023/01/30 11:26:52;;;;;;;;;;;;;;;;;;4994648;28;19918;-24
2023/01/30 11:29:18;;;;;;;;;;;;;;;;;;4993515;28;19910;-23
2023/01/30 11:31:44;;;;;;;;;;;;;;;;;;4994612;28;19917;-26
2023/01/30 11:34:10;;;;;;;;;;;;;;;;;;4994739;28;20348;-24
2023/01/30 11:36:37;;;;;;;;;;;;;;;;;;4994450;28;19924;-24
2023/01/30 11:39:03;;;;;;;;;;;;;;;;;;4994331;28;20003;-25
2023/01/30 11:41:29;;;;;;;;;;;;;;;;;;4994608;28;19949;-25
2023/01/30 11:43:55;;;;;;;;;;;;;;;;;;4994494;28;19918;-25
2023/01/30 11:46:21;;;;;;;;;;;;;;;;;;4994416;28;20420;-24
2023/01/30 11:48:47;;;;;;;;;;;;;;;;;;4994558;28;19965;-25
2023/01/30 11:51:13;;;;;;;;;;;;;;;;;;4994127;28;19918;-24
2023/01/30 11:53:39;;;;;;;;;;;;;;;;;;4993970;28;19984;-24
2023/01/30 11:56:05;;;;;;;;;;;;;;;;;;4993995;28;19910;-25
2023/01/30 11:58:31;;;;;;;;;;;;;;;;;;4994154;28;19975;-25
2023/01/30 12:00:57;;;;;;;;;;;;;;;;;;4998108;28;19948;-24
2023/01/30 12:03:24;;;;;;;;;;;;;;;;;;4995859;28;20286;-24
2023/01/30 12:05:50;;;;;;;;;;;;;;;;;;4997545;28;19910;-25
2023/01/30 12:08:16;;;;;;;;;;;;;;;;;;4997131;28;19913;-24
2023/01/30 12:10:42;;;;;;;;;;;;;;;;;;4997308;28;19920;-34
2023/01/30 12:13:08;;;;;;;;;;;;;;;;;;4995820;28;20310;-25
2023/01/30 12:15:34;;;;;;;;;;;;;;;;;;4997128;28;20321;-24
2023/01/30 12:18:00;;;;;;;;;;;;;;;;;;4996924;28;19949;-25
2023/01/30 12:20:26;;;;;;;;;;;;;;;;;;4996982;28;20012;-24
2023/01/30 12:22:52;;;;;;;;;;;;;;;;;;4996080;28;19922;-25
2023/01/30 12:25:18;;;;;;;;;;;;;;;;;;4997523;28;19910;-25
2023/01/30 12:27:44;;;;;;;;;;;;;;;;;;4997338;28;19914;-24
2023/01/30 12:30:10;;;;;;;;;;;;;;;;;;4997016;28;19918;-24
2023/01/30 12:32:36;;;;;;;;;;;;;;;;;;4996190;28;19922;-24
2023/01/30 12:35:02;;;;;;;;;;;;;;;;;;4997116;28;20013;-24
2023/01/30 12:37:28;;;;;;;;;;;;;;;;;;4996063;28;19910;-24
2023/01/30 12:39:55;;;;;;;;;;;;;;;;;;4996059;28;19964;-24
2023/01/30 12:42:21;;;;;;;;;;;;;;;;;;4996319;28;19914;-24
2023/01/30 12:44:47;;;;;;;;;;;;;;;;;;4996811;28;19913;-25
2023/01/30 12:47:13;;;;;;;;;;;;;;;;;;4996726;28;19909;-25
2023/01/30 12:49:39;;;;;;;;;;;;;;;;;;4995714;28;20008;-24
2023/01/30 12:52:05;;;;;;;;;;;;;;;;;;4997085;28;19960;-24
2023/01/30 12:54:31;;;;;;;;;;;;;;;;;;4996753;28;19913;-24
2023/01/30 12:56:57;;;;;;;;;;;;;;;;;;4996751;28;19921;-25
2023/01/30 12:59:23;;;;;;;;;;;;;;;;;;4995864;28;19948;-24
2023/01/30 13:01:49;;;;;;;;;;;;;;;;;;4996772;28;20337;-24
2023/01/30 13:04:15;;;;;;;;;;;;;;;;;;4996289;28;19991;-24
2023/01/30 13:06:41;;;;;;;;;;;;;;;;;;4996380;28;19949;-25
2023/01/30 13:09:07;;;;;;;;;;;;;;;;;;4995272;28;20248;-25
2023/01/30 13:11:33;;;;;;;;;;;;;;;;;;4995831;28;19913;-24
2023/01/30 13:13:59;;;;;;;;;;;;;;;;;;4996409;28;19913;-25
2023/01/30 13:16:25;;;;;;;;;;;;;;;;;;4996267;28;19914;-24
2023/01/30 13:18:51;;;;;;;;;;;;;;;;;;4995574;28;19916;-25
2023/01/30 13:21:17;;;;;;;;;;;;;;;;;;4996663;28;19964;-24
2023/01/30 13:23:43;;;;;;;;;;;;;;;;;;4997000;28;19953;-24
2023/01/30 13:26:09;;;;;;;;;;;;;;;;;;4996357;28;19984;-24
2023/01/30 13:28:35;;;;;;;;;;;;;;;;;;4996543;28;20336;-24
2023/01/30 13:31:01;;;;;;;;;;;;;;;;;;4995188;28;19918;-25
2023/01/30 13:33:27;;;;;;;;;;;;;;;;;;4996093;28;19921;-24
2023/01/30 13:35:53;;;;;;;;;;;;;;;;;;4994991;28;19918;-25
2023/01/30 13:38:19;;;;;;;;;;;;;;;;;;4994909;28;20297;-24
2023/01/30 13:40:45;;;;;;;;;;;;;;;;;;4995856;28;19914;-22
2023/01/30 13:43:12;;;;;;;;;;;;;;;;;;4995675;28;19910;-24
2023/01/30 13:45:38;;;;;;;;;;;;;;;;;;4994406;28;19924;-24
2023/01/30 13:48:04;;;;;;;;;;;;;;;;;;4995550;28;19914;-24
2023/01/30 13:50:30;;;;;;;;;;;;;;;;;;4995486;28;20233;-24
2023/01/30 13:52:56;;;;;;;;;;;;;;;;;;4995456;28;19913;-24
2023/01/30 13:55:22;;;;;;;;;;;;;;;;;;4995647;28;19913;-25
2023/01/30 13:57:48;;;;;;;;;;;;;;;;;;4995184;28;20364;-24
2023/01/30 14:00:14;;;;;;;;;;;;;;;;;;4995746;28;19914;-24
2023/01/30 14:02:40;;;;;;;;;;;;;;;;;;4994867;28;19918;-24
2023/01/30 14:05:06;;;;;;;;;;;;;;;;;;4995714;28;20248;-24
2023/01/30 14:07:32;;;;;;;;;;;;;;;;;;4995389;28;19924;-24
2023/01/30 14:09:58;;;;;;;;;;;;;;;;;;4995439;28;19961;-24
2023/01/30 14:12:25;;;;;;;;;;;;;;;;;;4995350;28;19913;-24
2023/01/30 14:14:51;;;;;;;;;;;;;;;;;;4995318;28;19914;-24
2023/01/30 14:17:16;;;;;;;;;;;;;;;;;;4995405;28;19987;-24
2023/01/30 14:19:43;;;;;;;;;;;;;;;;;;4995989;28;19914;-24
2023/01/30 14:22:08;;;;;;;;;;;;;;;;;;4994368;28;19914;-25
2023/01/30 14:24:35;;;;;;;;;;;;;;;;;;4994069;28;20015;-25
2023/01/30 14:27:01;;;;;;;;;;;;;;;;;;4995239;28;20357;-23
2023/01/30 14:29:27;;;;;;;;;;;;;;;;;;4995272;28;19922;-24
2023/01/30 14:31:53;;;;;;;;;;;;;;;;;;4994955;28;19913;-24
2023/01/30 14:34:19;;;;;;;;;;;;;;;;;;4995532;28;19909;-24
2023/01/30 14:36:45;;;;;;;;;;;;;;;;;;4995185;28;20000;-25
2023/01/30 14:39:11;;;;;;;;;;;;;;;;;;4994230;28;19921;-25
2023/01/30 14:41:37;;;;;;;;;;;;;;;;;;4995137;28;20000;-25
2023/01/30 14:44:03;;;;;;;;;;;;;;;;;;4995189;28;19956;-25
2023/01/30 14:46:29;;;;;;;;;;;;;;;;;;4995406;28;19914;-25
2023/01/30 14:49:03;;;;;;;;;;;;;;;;;;4995319;28;19918;-25
2023/01/30 14:51:29;;;;;;;;;;;;;;;;;;4995313;28;19913;-25
2023/01/30 14:53:55;;;;;;;;;;;;;;;;;;4995053;28;19913;-27
2023/01/30 14:56:21;;;;;;;;;;;;;;;;;;4995025;28;19910;-25
2023/01/30 14:58:47;;;;;;;;;;;;;;;;;;4993917;28;19940;-26
2023/01/30 15:01:13;;;;;;;;;;;;;;;;;;4994899;28;19917;-25
2023/01/30 15:03:40;;;;;;;;;;;;;;;;;;4994642;28;19949;-25
2023/01/30 15:06:06;;;;;;;;;;;;;;;;;;4995045;28;19913;-24
2023/01/30 15:08:32;;;;;;;;;;;;;;;;;;4995342;28;19916;-25
2023/01/30 15:10:58;;;;;;;;;;;;;;;;;;4995121;28;19918;-26
2023/01/30 15:13:24;;;;;;;;;;;;;;;;;;4994870;28;20332;-25
2023/01/30 15:15:50;;;;;;;;;;;;;;;;;;4995039;28;19946;-24
2023/01/30 15:18:16;;;;;;;;;;;;;;;;;;4995033;28;20226;-24
2023/01/30 15:20:42;;;;;;;;;;;;;;;;;;4993763;28;19964;-25
2023/01/30 15:23:09;;;;;;;;;;;;;;;;;;4993715;28;19936;-24
2023/01/30 15:25:34;;;;;;;;;;;;;;;;;;4994739;28;19914;-25
2023/01/30 15:28:01;;;;;;;;;;;;;;;;;;4994987;28;19917;-25
2023/01/30 15:30:27;;;;;;;;;;;;;;;;;;4993511;28;19921;-25
2023/01/30 15:32:53;;;;;;;;;;;;;;;;;;4994392;28;19914;-25
2023/01/30 15:35:19;;;;;;;;;;;;;;;;;;4997553;28;19921;-25
2023/01/30 15:37:45;;;;;;;;;;;;;;;;;;4998157;28;19913;-25
2023/01/30 15:40:11;;;;;;;;;;;;;;;;;;4998014;28;19932;-25
2023/01/30 15:42:37;;;;;;;;;;;;;;;;;;4998081;28;19996;-25
2023/01/30 15:45:03;;;;;;;;;;;;;;;;;;4998048;28;19924;-25
2023/01/30 15:47:29;;;;;;;;;;;;;;;;;;4998015;28;20013;-25
2023/01/30 15:49:56;;;;;;;;;;;;;;;;;;4997855;28;20368;-25
2023/01/30 15:52:22;;;;;;;;;;;;;;;;;;4996689;28;19953;-25
2023/01/30 15:54:48;;;;;;;;;;;;;;;;;;4996825;28;19913;-25
2023/01/30 15:57:14;;;;;;;;;;;;;;;;;;4998002;28;19913;-26
2023/01/30 15:59:40;;;;;;;;;;;;;;;;;;4997753;28;19914;-25
2023/01/30 16:02:06;;;;;;;;;;;;;;;;;;4997886;28;19914;-26
2023/01/30 16:04:32;;;;;;;;;;;;;;;;;;4997442;28;20016;-26
2023/01/30 16:06:58;;;;;;;;;;;;;;;;;;4996557;28;19914;-26
2023/01/30 16:09:25;;;;;;;;;;;;;;;;;;4997623;28;19936;-25
2023/01/30 16:11:51;;;;;;;;;;;;;;;;;;4997186;28;19914;-25
2023/01/30 16:14:17;;;;;;;;;;;;;;;;;;4997031;28;19924;-23
2023/01/30 16:16:43;;;;;;;;;;;;;;;;;;4997028;28;19993;-23
2023/01/30 16:19:12;;;;;;;;;;;;;;;;;;4995857;28;20005;-24
2023/01/30 16:21:38;;;;;;;;;;;;;;;;;;4996887;28;19937;-24
2023/01/30 16:24:05;;;;;;;;;;;;;;;;;;4996873;28;19909;-24
2023/01/30 16:26:31;;;;;;;;;;;;;;;;;;4996863;28;19952;-24
2023/01/30 16:28:57;;;;;;;;;;;;;;;;;;4996776;28;19914;-24
2023/01/30 16:31:24;;;;;;;;;;;;;;;;;;4996716;28;19921;-24
2023/01/30 16:33:50;;;;;;;;;;;;;;;;;;4995545;28;20374;-24
2023/01/30 16:36:16;;;;;;;;;;;;;;;;;;4996930;28;19922;-24
2023/01/30 16:38:43;;;;;;;;;;;;;;;;;;4997272;28;19928;-24
2023/01/30 16:41:09;;;;;;;;;;;;;;;;;;4996980;28;19925;-24
2023/01/30 16:43:35;;;;;;;;;;;;;;;;;;4996859;28;19910;-24
2023/01/30 16:46:01;;;;;;;;;;;;;;;;;;4996210;28;19916;-24